Time;durP1;ratioP1;P1;durP2;ratioP2;P2;SDS_P1;SDS_P2;PMS_P1;PMS_P2;Temp;Humidity;BMP_temperature;BMP_pressure;BME280_temperature;BME280_humidity;BME280_pressure;Samples;Min_cycle;Max_cycle;Signal;HPM_P1;HPM_P2
2023/07/11 00:00:10;;;;;;;0.22;0.20;;;13.90;99.90;;;;;;5084952;28;20415;-71
2023/07/11 00:02:35;;;;;;;0.90;0.50;;;14.00;99.90;;;;;;5085003;28;20052;-71
2023/07/11 00:05:04;;;;;;;0.05;0.00;;;14.10;99.90;;;;;;5085298;28;20051;-71
2023/07/11 00:07:29;;;;;;;0.20;0.20;;;14.20;99.90;;;;;;5084938;28;20083;-71
2023/07/11 00:09:55;;;;;;;0.20;0.10;;;14.20;99.90;;;;;;5084846;28;20087;-71
2023/07/11 00:12:21;;;;;;;0.00;0.00;;;14.20;99.90;;;;;;5084567;28;20417;-71
2023/07/11 00:14:46;;;;;;;0.32;0.32;;;14.30;99.90;;;;;;5084756;28;20089;-71
2023/07/11 00:17:12;;;;;;;0.20;0.05;;;14.30;99.90;;;;;;5085005;28;20043;-71
2023/07/11 00:19:50;;;;;;;0.00;0.00;;;14.40;99.90;;;;;;5084453;28;20060;-72
2023/07/11 00:22:16;;;;;;;0.55;0.43;;;14.50;99.90;;;;;;5084309;28;20047;-71
2023/07/11 00:24:42;;;;;;;0.10;0.10;;;14.40;99.90;;;;;;5084503;28;20032;-71
2023/07/11 00:27:10;;;;;;;0.00;0.00;;;15.30;99.90;;;;;;5084638;28;20048;-71
2023/07/11 00:29:36;;;;;;;0.00;0.00;;;14.30;99.90;;;;;;5084743;28;20074;-71
2023/07/11 00:32:03;;;;;;;0.00;0.00;;;14.30;99.90;;;;;;5083626;28;20453;-71
2023/07/11 00:34:28;;;;;;;0.00;0.00;;;14.10;99.90;;;;;;5084191;28;20044;-71
2023/07/11 00:36:54;;;;;;;0.00;0.00;;;14.10;99.90;;;;;;5084144;28;20046;-71
2023/07/11 00:39:20;;;;;;;0.00;0.00;;;14.10;99.90;;;;;;5084044;28;20083;-73
2023/07/11 00:41:46;;;;;;;0.00;0.00;;;14.10;99.90;;;;;;5084161;28;21048;-70
2023/07/11 00:44:16;;;;;;;0.73;0.43;;;14.30;99.90;;;;;;5083634;28;20155;-70
2023/07/11 00:46:43;;;;;;;0.00;0.00;;;14.40;99.90;;;;;;5084430;28;20043;-70
2023/07/11 00:49:16;;;;;;;0.00;0.00;;;14.40;99.90;;;;;;5084204;28;20046;-69
2023/07/11 00:51:56;;;;;;;0.45;0.15;;;14.50;99.90;;;;;;5084268;28;20048;-70
2023/07/11 00:54:25;;;;;;;0.70;0.32;;;14.50;99.90;;;;;;5084119;28;20064;-70
2023/07/11 00:56:51;;;;;;;0.13;0.10;;;14.60;99.90;;;;;;5084072;28;20127;-71
2023/07/11 00:59:19;;;;;;;0.43;0.40;;;14.70;99.90;;;;;;5083938;28;20230;-71
2023/07/11 01:01:54;;;;;;;0.63;0.28;;;14.70;99.90;;;;;;5083910;28;20088;-71
2023/07/11 01:04:20;;;;;;;0.00;0.00;;;14.70;99.90;;;;;;5083626;28;20056;-71
2023/07/11 01:06:46;;;;;;;0.00;0.00;;;14.80;99.90;;;;;;5083887;28;20048;-71
2023/07/11 01:09:12;;;;;;;0.00;0.00;;;14.80;99.90;;;;;;5084334;28;20403;-71
2023/07/11 01:12:12;;;;;;;1.35;0.10;;;14.70;99.90;;;;;;5083924;28;20039;-71
2023/07/11 01:14:43;;;;;;;0.28;0.28;;;14.70;99.90;;;;;;5040435;28;20418;-71
2023/07/11 01:17:31;;;;;;;0.10;0.10;;;14.60;99.90;;;;;;5084041;28;20051;-71
2023/07/11 01:19:59;;;;;;;0.43;0.43;;;14.60;99.90;;;;;;5084147;28;20461;-70
2023/07/11 01:22:26;;;;;;;3.15;1.45;;;14.60;99.90;;;;;;5084371;28;20043;-71
2023/07/11 01:24:52;;;;;;;1.77;1.00;;;14.60;99.90;;;;;;5083858;28;20139;-71
2023/07/11 01:27:19;;;;;;;0.05;0.05;;;14.80;99.90;;;;;;5083664;28;20051;-71
2023/07/11 01:29:47;;;;;;;0.17;0.00;;;14.60;99.90;;;;;;5084123;28;20051;-71
2023/07/11 01:32:13;;;;;;;0.15;0.10;;;14.50;99.90;;;;;;5084027;28;20441;-71
2023/07/11 01:34:39;;;;;;;0.20;0.20;;;14.50;99.90;;;;;;5083513;28;20106;-72
2023/07/11 01:37:05;;;;;;;0.00;0.00;;;14.50;99.90;;;;;;5083772;28;20127;-71
2023/07/11 01:39:30;;;;;;;0.00;0.00;;;14.40;99.90;;;;;;5083972;28;20119;-71
2023/07/11 01:41:56;;;;;;;0.00;0.00;;;14.40;99.90;;;;;;5084101;28;20052;-71
2023/07/11 01:44:23;;;;;;;1.25;0.22;;;14.40;99.90;;;;;;5087804;28;20059;-71
2023/07/11 01:46:49;;;;;;;0.00;0.00;;;14.40;99.90;;;;;;5087435;28;20083;-71
2023/07/11 01:49:14;;;;;;;0.55;0.20;;;14.50;99.90;;;;;;5087483;28;20136;-74
2023/07/11 01:51:44;;;;;;;0.50;0.25;;;14.60;99.90;;;;;;5087344;28;20494;-71
2023/07/11 01:54:10;;;;;;;0.00;0.00;;;14.60;99.90;;;;;;5086941;28;20565;-71
2023/07/11 01:56:37;;;;;;;0.10;0.10;;;14.60;99.90;;;;;;5087161;28;20119;-71
2023/07/11 01:59:02;;;;;;;0.20;0.20;;;14.60;99.90;;;;;;5087259;28;20119;-71
2023/07/11 02:01:28;;;;;;;0.00;0.00;;;14.60;99.90;;;;;;5087593;28;20123;-71
2023/07/11 02:03:54;;;;;;;0.03;0.03;;;14.60;99.90;;;;;;5087575;28;20054;-71
2023/07/11 02:06:20;;;;;;;0.30;0.20;;;14.50;99.90;;;;;;5086555;28;20123;-71
2023/07/11 02:08:46;;;;;;;0.10;0.10;;;14.50;99.90;;;;;;5086782;28;20178;-71
2023/07/11 02:11:12;;;;;;;0.08;0.08;;;14.50;99.90;;;;;;5086579;28;20051;-71
2023/07/11 02:13:40;;;;;;;0.43;0.43;;;14.40;99.90;;;;;;5087093;28;20048;-71
2023/07/11 02:16:06;;;;;;;0.10;0.10;;;14.40;99.90;;;;;;5086902;28;20158;-71
2023/07/11 02:18:32;;;;;;;0.28;0.22;;;14.40;99.90;;;;;;5086659;28;20044;-71
2023/07/11 02:20:58;;;;;;;0.88;0.55;;;14.40;99.90;;;;;;5087171;28;20036;-71
2023/07/11 02:23:24;;;;;;;0.85;0.22;;;14.40;99.90;;;;;;5086624;28;20088;-71
2023/07/11 02:25:54;;;;;;;6.07;2.75;;;14.40;99.90;;;;;;5086648;28;20040;-75
2023/07/11 02:28:23;;;;;;;0.00;0.00;;;14.30;99.90;;;;;;5086672;28;20051;-74
2023/07/11 02:30:49;;;;;;;0.38;0.35;;;14.20;99.90;;;;;;5087026;28;20035;-71
2023/07/11 02:33:14;;;;;;;0.20;0.20;;;14.20;99.90;;;;;;5086739;28;20131;-71
2023/07/11 02:35:40;;;;;;;0.25;0.15;;;14.20;99.90;;;;;;5086387;28;20131;-71
2023/07/11 02:38:06;;;;;;;0.00;0.00;;;14.20;99.90;;;;;;5086478;28;20040;-71
2023/07/11 02:40:31;;;;;;;0.20;0.10;;;14.10;99.90;;;;;;5086320;28;20059;-71
2023/07/11 02:42:57;;;;;;;0.25;0.20;;;14.20;99.90;;;;;;5086545;28;20509;-71
2023/07/11 02:45:23;;;;;;;0.00;0.00;;;14.20;99.90;;;;;;5086277;28;20518;-71
2023/07/11 02:47:49;;;;;;;0.10;0.05;;;14.10;99.90;;;;;;5086462;28;20430;-71
2023/07/11 02:50:15;;;;;;;0.00;0.00;;;14.20;99.90;;;;;;5085905;28;20529;-71
2023/07/11 02:52:40;;;;;;;1.52;0.10;;;14.10;99.90;;;;;;5086459;28;20044;-71
2023/07/11 02:55:07;;;;;;;0.00;0.00;;;14.20;99.90;;;;;;5086196;28;20048;-71
2023/07/11 02:57:32;;;;;;;0.63;0.38;;;14.30;99.90;;;;;;5086813;28;20113;-71
2023/07/11 02:59:58;;;;;;;0.45;0.20;;;14.40;99.90;;;;;;5085525;28;20044;-71
2023/07/11 03:02:24;;;;;;;1.73;0.57;;;14.40;99.90;;;;;;5086389;28;20044;-71
2023/07/11 03:04:51;;;;;;;0.15;0.10;;;14.50;99.90;;;;;;5085967;28;20079;-71
2023/07/11 03:07:17;;;;;;;0.22;0.22;;;14.50;99.90;;;;;;5086022;28;20509;-71
2023/07/11 03:09:43;;;;;;;0.00;0.00;;;14.60;99.90;;;;;;5086137;28;20043;-71
2023/07/11 03:12:09;;;;;;;0.00;0.00;;;14.60;99.90;;;;;;5085631;28;20502;-72
2023/07/11 03:14:34;;;;;;;0.10;0.10;;;14.60;99.90;;;;;;5085297;28;20083;-71
2023/07/11 03:17:00;;;;;;;0.20;0.05;;;14.60;37.60;;;;;;5085900;28;20086;-71
2023/07/11 03:19:26;;;;;;;0.65;0.45;;;14.60;48.70;;;;;;5085959;28;20044;-71
2023/07/11 03:21:51;;;;;;;1.02;0.85;;;14.50;9.00;;;;;;5085501;28;20101;-71
2023/07/11 03:24:17;;;;;;;0.25;0.20;;;14.50;1.00;;;;;;5085921;28;20040;-71
2023/07/11 03:26:46;;;;;;;1.55;0.90;;;14.50;62.70;;;;;;5085583;28;20047;-71
2023/07/11 03:29:13;;;;;;;0.75;0.57;;;14.50;99.90;;;;;;5085755;28;20740;-71
2023/07/11 03:31:40;;;;;;;0.00;0.00;;;14.50;99.90;;;;;;5085323;28;20253;-71
2023/07/11 03:34:05;;;;;;;1.13;0.82;;;14.50;99.90;;;;;;5085424;28;20040;-71
2023/07/11 03:36:31;;;;;;;0.05;0.05;;;14.40;99.90;;;;;;5085274;28;20127;-71
2023/07/11 03:38:57;;;;;;;0.00;0.00;;;14.40;99.90;;;;;;5085284;28;20107;-72
2023/07/11 03:41:22;;;;;;;0.00;0.00;;;14.40;99.90;;;;;;5084943;28;20456;-72
2023/07/11 03:43:48;;;;;;;0.57;0.22;;;14.40;16.60;;;;;;5085171;28;20044;-71
2023/07/11 03:46:14;;;;;;;0.28;0.22;;;14.50;1.00;;;;;;5085035;28;20040;-71
2023/07/11 03:48:39;;;;;;;1.13;0.70;;;14.60;1.00;;;;;;5084795;28;20075;-71
2023/07/11 03:51:05;;;;;;;5.38;1.77;;;14.70;1.00;;;;;;5084716;28;20124;-71
2023/07/11 03:53:30;;;;;;;0.65;0.20;;;14.80;1.00;;;;;;5085158;28;20514;-71
2023/07/11 03:55:56;;;;;;;0.00;0.00;;;14.80;1.00;;;;;;5085358;28;20374;-72
2023/07/11 03:58:24;;;;;;;0.10;0.10;;;15.10;1.00;;;;;;5084694;28;20036;-71
2023/07/11 04:00:49;;;;;;;0.00;0.00;;;15.00;99.90;;;;;;5084759;28;20052;-72
2023/07/11 04:03:15;;;;;;;0.05;0.05;;;15.00;99.90;;;;;;5084831;28;20051;-71
2023/07/11 04:05:41;;;;;;;0.00;0.00;;;15.10;99.90;;;;;;5084195;28;20503;-72
2023/07/11 04:08:08;;;;;;;0.00;0.00;;;15.80;99.90;;;;;;5084641;28;20494;-72
2023/07/11 04:10:34;;;;;;;0.20;0.20;;;15.30;99.90;;;;;;5084501;28;20051;-72
2023/07/11 04:13:00;;;;;;;0.10;0.10;;;15.30;99.90;;;;;;5084239;28;20518;-71
2023/07/11 04:15:26;;;;;;;0.20;0.20;;;15.40;99.90;;;;;;5084754;28;20051;-71
2023/07/11 04:17:51;;;;;;;4.53;0.25;;;15.40;99.90;;;;;;5084800;28;20850;-74
2023/07/11 04:20:17;;;;;;;0.00;0.00;;;15.40;88.60;;;;;;5084348;28;20112;-72
2023/07/11 04:22:43;;;;;;;17.88;0.20;;;15.50;99.90;;;;;;5084423;28;20063;-72
2023/07/11 04:25:08;;;;;;;0.65;0.50;;;15.60;99.90;;;;;;5084584;28;20044;-72
2023/07/11 04:27:34;;;;;;;0.25;0.25;;;15.60;54.40;;;;;;5067892;28;20044;-73
2023/07/11 04:29:59;;;;;;;4.57;0.35;;;15.70;1.00;;;;;;5073462;28;20055;-72
2023/07/11 04:32:25;;;;;;;0.00;0.00;;;15.70;1.00;;;;;;5081413;28;20573;-73
2023/07/11 04:34:51;;;;;;;0.08;0.08;;;15.70;1.00;;;;;;5084835;28;20044;-72
2023/07/11 04:37:17;;;;;;;0.00;0.00;;;15.70;1.00;;;;;;5084338;28;20048;-72
2023/07/11 04:39:42;;;;;;;0.00;0.00;;;15.70;1.00;;;;;;5084347;28;20115;-72
2023/07/11 04:42:08;;;;;;;0.00;0.00;;;15.70;1.00;;;;;;5084193;28;20471;-72
2023/07/11 04:44:34;;;;;;;0.65;0.55;;;15.60;1.00;;;;;;5084386;28;20048;-72
2023/07/11 04:47:00;;;;;;;0.05;0.05;;;15.60;1.00;;;;;;5084287;28;20044;-72
2023/07/11 04:49:26;;;;;;;0.00;0.00;;;15.60;1.00;;;;;;5083797;28;20101;-72
2023/07/11 04:51:52;;;;;;;0.22;0.20;;;15.70;88.60;;;;;;5084264;28;20040;-72
2023/07/11 04:54:17;;;;;;;0.35;0.22;;;16.00;99.90;;;;;;5084223;28;20040;-72
2023/07/11 04:56:43;;;;;;;0.00;0.00;;;16.80;99.90;;;;;;5081603;28;20050;-72
2023/07/11 04:59:09;;;;;;;0.10;0.10;;;17.60;99.90;;;;;;5069319;28;20612;-72
2023/07/11 05:01:35;;;;;;;0.00;0.00;;;18.40;99.90;;;;;;5068829;28;20118;-72
2023/07/11 05:04:01;;;;;;;0.10;0.10;;;19.10;1.00;;;;;;5072496;28;20551;-72
2023/07/11 05:06:26;;;;;;;0.30;0.30;;;19.70;99.90;;;;;;5068424;28;20077;-72
2023/07/11 05:08:53;;;;;;;7.93;0.82;;;20.40;99.90;;;;;;5063896;28;20052;-72
2023/07/11 05:11:20;;;;;;;0.00;0.00;;;21.20;85.50;;;;;;5077529;28;20066;-72
2023/07/11 05:13:49;;;;;;;0.03;0.03;;;22.00;1.00;;;;;;5075815;28;20584;-72
2023/07/11 05:16:20;;;;;;;0.35;0.30;;;22.80;6.80;;;;;;5072023;28;20050;-73
2023/07/11 05:18:47;;;;;;;0.00;0.00;;;23.20;99.90;;;;;;5067455;28;20049;-72
2023/07/11 05:21:15;;;;;;;1.20;1.08;;;23.50;99.90;;;;;;5080776;28;20489;-73
2023/07/11 05:23:41;;;;;;;0.05;0.03;;;24.00;5.30;;;;;;5072488;28;20044;-72
2023/07/11 05:26:07;;;;;;;0.73;0.20;;;24.60;1.00;;;;;;5067135;28;20110;-72
2023/07/11 05:28:34;;;;;;;0.40;0.38;;;24.70;99.90;;;;;;5066992;28;20055;-73
2023/07/11 05:31:04;;;;;;;0.10;0.10;;;24.50;99.90;;;;;;5066792;28;20044;-72
2023/07/11 05:33:30;;;;;;;0.93;0.35;;;24.40;99.90;;;;;;5067179;28;20080;-73
2023/07/11 05:36:15;;;;;;;0.47;0.38;;;24.60;99.90;;;;;;5067068;28;20083;-72
2023/07/11 05:38:41;;;;;;;0.03;0.03;;;24.30;99.90;;;;;;5066899;28;20041;-72
2023/07/11 05:41:07;;;;;;;0.45;0.45;;;23.70;89.20;;;;;;5066495;28;20060;-72
2023/07/11 05:43:33;;;;;;;0.35;0.15;;;23.40;86.90;;;;;;5066831;28;20062;-72
2023/07/11 05:45:59;;;;;;;1.08;0.43;;;23.40;91.50;;;;;;5066345;28;20128;-72
2023/07/11 05:48:24;;;;;;;0.00;0.00;;;23.30;81.30;;;;;;5066123;28;20528;-73
2023/07/11 05:51:00;;;;;;;0.35;0.32;;;23.50;99.90;;;;;;5066283;28;20410;-72
2023/07/11 05:53:26;;;;;;;;;;;23.90;99.90;;;;;;5066703;28;20064;-72
2023/07/11 05:55:52;;;;;;;0.45;0.40;;;24.30;99.90;;;;;;5065678;28;19924;-73
2023/07/11 05:58:18;;;;;;;0.98;0.88;;;24.80;99.90;;;;;;5065484;28;20041;-72
2023/07/11 06:00:44;;;;;;;0.08;0.08;;;25.40;99.90;;;;;;5064714;28;20056;-72
2023/07/11 06:03:09;;;;;;;0.00;0.00;;;25.80;99.90;;;;;;5064689;28;20052;-72
2023/07/11 06:05:35;;;;;;;0.08;0.08;;;26.40;99.90;;;;;;5064549;28;20449;-72
2023/07/11 06:08:01;;;;;;;0.10;0.10;;;26.50;78.80;;;;;;5064566;28;20041;-72
2023/07/11 06:10:28;;;;;;;0.00;0.00;;;26.40;45.90;;;;;;5064523;28;20055;-73
2023/07/11 06:12:53;;;;;;;2.35;0.65;;;26.40;16.50;;;;;;5064577;28;20444;-73
2023/07/11 06:15:19;;;;;;;1.13;0.70;;;26.70;15.30;;;;;;5064460;28;20059;-72
2023/07/11 06:17:45;;;;;;;0.30;0.30;;;26.70;9.00;;;;;;5064432;28;20560;-72
2023/07/11 06:20:11;;;;;;;0.28;0.28;;;26.80;1.00;;;;;;5064490;28;20084;-70
2023/07/11 06:22:37;;;;;;;0.05;0.03;;;27.10;1.00;;;;;;5064234;28;20487;-70
2023/07/11 06:25:02;;;;;;;3.47;0.45;;;27.30;1.00;;;;;;5064145;28;20458;-70
2023/07/11 06:27:29;;;;;;;0.17;0.10;;;27.60;1.00;;;;;;5064122;28;20047;-70
2023/07/11 06:29:55;;;;;;;0.00;0.00;;;27.70;1.00;;;;;;5062823;28;20037;-70
2023/07/11 06:32:20;;;;;;;0.00;0.00;;;27.30;1.00;;;;;;5064094;28;20040;-70
2023/07/11 06:34:46;;;;;;;0.30;0.28;;;26.70;1.00;;;;;;5063871;28;20487;-70
2023/07/11 06:37:12;;;;;;;0.30;0.15;;;26.70;99.90;;;;;;5063773;28;20097;-70
2023/07/11 06:39:38;;;;;;;0.00;0.00;;;26.80;1.00;;;;;;5063560;28;20041;-70
2023/07/11 06:42:04;;;;;;;0.10;0.10;;;27.40;1.00;;;;;;5063463;28;20051;-70
2023/07/11 06:44:30;;;;;;;0.25;0.17;;;28.00;1.00;;;;;;5063684;28;20041;-70
2023/07/11 06:46:56;;;;;;;0.68;0.20;;;28.20;99.90;;;;;;5063602;28;20459;-70
2023/07/11 06:49:22;;;;;;;6.50;0.40;;;27.80;99.90;;;;;;5063607;28;20090;-70
2023/07/11 06:51:49;;;;;;;0.70;0.28;;;27.40;99.90;;;;;;5063467;28;20040;-70
2023/07/11 06:54:16;;;;;;;0.40;0.38;;;26.90;99.90;;;;;;5063560;28;20131;-70
2023/07/11 06:56:42;;;;;;;0.10;0.10;;;26.50;99.90;;;;;;5064097;28;20110;-70
2023/07/11 06:59:08;;;;;;;0.30;0.30;;;26.30;99.90;;;;;;5063863;28;20041;-70
2023/07/11 07:01:34;;;;;;;2.60;0.65;;;25.80;99.90;;;;;;5062604;28;20087;-70
2023/07/11 07:04:00;;;;;;;0.32;0.25;;;25.40;99.90;;;;;;5068837;28;20052;-70
2023/07/11 07:06:26;;;;;;;3.45;0.65;;;26.00;99.90;;;;;;5063291;28;20040;-70
2023/07/11 07:08:52;;;;;;;0.00;0.00;;;26.80;99.90;;;;;;5062834;28;20105;-70
2023/07/11 07:11:18;;;;;;;0.52;0.35;;;27.50;99.90;;;;;;5063203;28;20128;-70
2023/07/11 07:13:44;;;;;;;0.45;0.45;;;27.60;99.90;;;;;;5063390;28;20128;-70
2023/07/11 07:16:10;;;;;;;1.52;0.60;;;28.10;99.90;;;;;;5063420;28;20450;-70
2023/07/11 07:18:38;;;;;;;2.20;0.55;;;28.00;99.90;;;;;;5063129;28;20041;-70
2023/07/11 07:21:04;;;;;;;1.00;0.73;;;28.30;99.90;;;;;;5063428;28;20052;-70
2023/07/11 07:23:33;;;;;;;0.28;0.28;;;28.60;99.90;;;;;;5063052;28;20040;-70
2023/07/11 07:26:00;;;;;;;0.90;0.82;;;28.50;99.90;;;;;;5063128;28;20059;-70
2023/07/11 07:28:28;;;;;;;0.93;0.38;;;28.50;99.90;;;;;;5062981;28;20483;-70
2023/07/11 07:30:54;;;;;;;0.98;0.65;;;28.30;99.90;;;;;;5063211;28;20051;-70
2023/07/11 07:33:24;;;;;;;0.50;0.28;;;28.70;99.90;;;;;;5062584;28;20123;-70
2023/07/11 07:35:59;;;;;;;0.10;0.10;;;28.90;99.90;;;;;;5062470;28;20127;-70
2023/07/11 07:38:27;;;;;;;0.57;0.45;;;29.60;99.90;;;;;;5062672;28;20060;-70
2023/07/11 07:40:54;;;;;;;0.32;0.32;;;29.70;99.90;;;;;;5061877;28;20068;-70
2023/07/11 07:43:20;;;;;;;1.33;0.90;;;29.30;99.90;;;;;;5062621;28;20071;-70
2023/07/11 07:45:51;;;;;;;0.52;0.40;;;28.90;99.90;;;;;;5062435;28;20505;-70
2023/07/11 07:48:17;;;;;;;0.08;0.08;;;28.60;99.90;;;;;;5062572;28;20113;-70
2023/07/11 07:50:43;;;;;;;0.22;0.20;;;28.80;99.90;;;;;;5062758;28;20056;-70
2023/07/11 07:53:09;;;;;;;1.88;0.65;;;28.90;99.90;;;;;;5062558;28;20040;-70
2023/07/11 07:55:35;;;;;;;0.00;0.00;;;28.70;99.90;;;;;;5062629;28;20067;-70
2023/07/11 07:58:01;;;;;;;0.30;0.30;;;28.50;99.90;;;;;;5065609;28;20368;-71
2023/07/11 08:00:26;;;;;;;0.00;0.00;;;28.20;99.90;;;;;;5068677;28;20137;-71
2023/07/11 08:02:52;;;;;;;0.20;0.10;;;28.20;99.90;;;;;;5068047;28;20090;-71
2023/07/11 08:05:19;;;;;;;3.13;0.90;;;28.70;99.90;;;;;;5066703;28;20044;-72
2023/07/11 08:07:45;;;;;;;0.32;0.20;;;29.50;99.90;;;;;;5067098;28;20055;-72
2023/07/11 08:10:10;;;;;;;1.85;0.30;;;30.10;99.90;;;;;;5067663;28;20044;-72
2023/07/11 08:12:36;;;;;;;1.20;0.63;;;30.70;99.90;;;;;;5056217;28;20578;-72
2023/07/11 08:15:05;;;;;;;8.82;0.35;;;30.70;99.90;;;;;;5066558;28;20070;-71
2023/07/11 08:17:31;;;;;;;0.00;0.00;;;30.90;99.90;;;;;;5067003;28;20055;-72
2023/07/11 08:19:57;;;;;;;0.13;0.13;;;30.70;99.90;;;;;;5067141;28;20087;-72
2023/07/11 08:22:23;;;;;;;0.38;0.35;;;30.70;99.90;;;;;;5066961;28;20706;-72
2023/07/11 08:24:48;;;;;;;0.20;0.20;;;30.80;99.90;;;;;;5066146;28;20048;-72
2023/07/11 08:27:14;;;;;;;1.02;0.60;;;30.30;99.90;;;;;;5066847;28;20580;-72
2023/07/11 08:29:44;;;;;;;0.13;0.13;;;30.70;99.90;;;;;;5067172;28;20086;-72
2023/07/11 08:32:12;;;;;;;0.63;0.50;;;30.80;99.90;;;;;;5066264;28;20510;-72
2023/07/11 08:34:39;;;;;;;0.03;0.03;;;31.50;99.90;;;;;;5065529;28;20059;-72
2023/07/11 08:37:04;;;;;;;0.00;0.00;;;32.60;99.90;;;;;;5067026;28;20048;-72
2023/07/11 08:39:30;;;;;;;0.85;0.43;;;32.80;99.90;;;;;;5066723;28;20556;-72
2023/07/11 08:41:59;;;;;;;0.60;0.30;;;32.40;99.90;;;;;;5066415;28;20163;-72
2023/07/11 08:44:36;;;;;;;0.10;0.10;;;31.90;99.90;;;;;;5066020;28;20044;-71
2023/07/11 08:47:16;;;;;;;0.38;0.20;;;31.90;99.90;;;;;;5067088;28;20040;-72
2023/07/11 08:49:54;;;;;;;0.85;0.63;;;31.10;99.90;;;;;;5077848;28;20094;-72
2023/07/11 08:52:22;;;;;;;0.30;0.20;;;30.30;99.90;;;;;;5079654;28;20052;-71
2023/07/11 08:55:03;;;;;;;0.25;0.10;;;29.90;99.90;;;;;;5082112;28;20063;-71
2023/07/11 08:57:35;;;;;;;0.35;0.28;;;29.90;99.90;;;;;;5082310;28;20055;-71
2023/07/11 09:00:05;;;;;;;0.20;0.20;;;30.10;99.90;;;;;;5082787;28;20129;-71
2023/07/11 09:02:54;;;;;;;0.08;0.08;;;30.80;99.90;;;;;;5082212;28;20048;-72
2023/07/11 09:05:38;;;;;;;0.13;0.10;;;31.10;99.90;;;;;;5079369;28;20040;-71
2023/07/11 09:08:04;;;;;;;1.13;0.60;;;31.20;99.90;;;;;;5078997;28;20052;-72
2023/07/11 09:10:44;;;;;;;0.65;0.65;;;31.40;99.90;;;;;;5078757;28;20123;-72
2023/07/11 09:13:16;;;;;;;0.20;0.20;;;31.90;99.90;;;;;;5079053;28;20048;-72
2023/07/11 09:15:59;;;;;;;0.10;0.10;;;32.70;99.90;;;;;;5079317;28;20051;-72
2023/07/11 09:19:01;;;;;;;1.80;0.93;;;33.10;99.90;;;;;;5081398;28;20406;-72
2023/07/11 09:21:48;;;;;;;0.03;0.03;;;33.20;99.90;;;;;;5041324;28;20121;-72
2023/07/11 09:24:41;;;;;;;1.40;0.40;;;33.50;99.90;;;;;;5082346;28;20086;-72
2023/07/11 09:27:25;;;;;;;1.15;0.52;;;33.60;64.20;;;;;;5082606;28;20052;-72
2023/07/11 09:29:51;;;;;;;0.20;0.20;;;33.60;45.90;;;;;;5083259;28;20083;-72
2023/07/11 09:32:18;;;;;;;1.15;0.45;;;33.50;3.40;;;;;;5081723;28;20444;-72
2023/07/11 09:34:52;;;;;;;0.00;0.00;;;32.50;1.00;;;;;;5079061;28;20421;-72
2023/07/11 09:37:42;;;;;;;17.08;0.28;;;32.20;1.00;;;;;;5079011;28;20097;-72
2023/07/11 09:40:14;;;;;;;0.65;0.43;;;32.50;1.00;;;;;;5078890;28;20060;-72
2023/07/11 09:42:54;;;;;;;0.20;0.20;;;32.50;1.00;;;;;;5079012;28;20469;-72
2023/07/11 09:45:28;;;;;;;0.47;0.25;;;32.70;1.00;;;;;;5078861;28;20280;-72
2023/07/11 09:48:17;;;;;;;0.30;0.28;;;32.60;1.00;;;;;;5078116;28;20276;-72
2023/07/11 09:51:14;;;;;;;3.78;0.47;;;32.60;1.00;;;;;;5078875;28;20105;-72
2023/07/11 09:53:45;;;;;;;0.00;0.00;;;32.80;1.00;;;;;;5078774;28;20510;-72
2023/07/11 09:56:17;;;;;;;0.20;0.20;;;32.80;1.00;;;;;;5078958;28;20104;-72
2023/07/11 09:58:52;;;;;;;0.20;0.20;;;32.80;1.00;;;;;;5078848;28;20063;-72
2023/07/11 10:01:32;;;;;;;0.82;0.47;;;32.40;1.00;;;;;;5078889;28;20052;-72
2023/07/11 10:04:04;;;;;;;0.55;0.38;;;32.20;1.00;;;;;;5079584;28;20044;-72
2023/07/11 10:06:39;;;;;;;0.00;0.00;;;32.40;1.00;;;;;;5081762;28;20050;-72
2023/07/11 10:09:44;;;;;;;17.30;0.90;;;32.20;1.00;;;;;;5081678;28;20044;-73
2023/07/11 10:12:19;;;;;;;0.52;0.38;;;32.00;1.00;;;;;;5041057;28;20502;-73
2023/07/11 10:14:47;;;;;;;0.45;0.35;;;31.50;1.00;;;;;;5083124;28;20044;-71
2023/07/11 10:17:36;;;;;;;0.10;0.10;;;31.70;1.00;;;;;;5084676;28;20052;-72
2023/07/11 10:20:06;;;;;;;0.10;0.10;;;31.80;1.00;;;;;;5086216;28;20150;-72
2023/07/11 10:22:33;;;;;;;0.03;0.03;;;32.00;1.00;;;;;;5086760;28;20391;-72
2023/07/11 10:25:13;;;;;;;0.50;0.30;;;32.00;1.00;;;;;;5086410;28;20113;-72
2023/07/11 10:27:40;;;;;;;6.93;0.75;;;32.00;1.00;;;;;;5085476;28;20067;-71
2023/07/11 10:30:15;;;;;;;0.52;0.52;;;32.20;1.00;;;;;;5082786;28;20051;-72
2023/07/11 10:32:50;;;;;;;0.55;0.35;;;32.50;1.00;;;;;;5082856;28;20048;-72
2023/07/11 10:35:19;;;;;;;;;;;32.60;1.00;;;;;;5082868;28;20052;-72
2023/07/11 10:38:04;;;;;;;0.25;0.22;;;32.40;1.00;;;;;;5082288;28;19946;-72
2023/07/11 10:40:51;;;;;;;0.10;0.10;;;31.80;1.00;;;;;;5082147;28;20110;-72
2023/07/11 10:43:50;;;;;;;1.15;0.68;;;31.60;1.00;;;;;;5083203;28;20082;-72
2023/07/11 10:46:37;;;;;;;0.50;0.40;;;31.70;1.00;;;;;;5065591;28;20063;-72
2023/07/11 10:49:07;;;;;;;0.00;0.00;;;32.10;1.00;;;;;;5082423;28;20406;-72
2023/07/11 10:52:03;;;;;;;0.38;0.20;;;32.50;1.00;;;;;;5082927;28;20062;-72
2023/07/11 10:54:41;;;;;;;0.28;0.20;;;32.70;1.00;;;;;;5082065;28;20417;-72
2023/07/11 10:57:32;;;;;;;0.38;0.38;;;32.70;1.00;;;;;;5082088;28;20052;-72
2023/07/11 10:59:57;;;;;;;0.52;0.52;;;33.00;1.00;;;;;;5081839;28;20059;-72
2023/07/11 11:02:47;;;;;;;1.00;0.52;;;33.10;1.00;;;;;;5083591;28;20060;-72
2023/07/11 11:05:35;;;;;;;1.48;0.75;;;33.30;1.00;;;;;;5083627;28;20048;-72
2023/07/11 11:08:08;;;;;;;0.00;0.00;;;33.30;1.00;;;;;;5083346;28;20040;-72
2023/07/11 11:10:57;;;;;;;0.00;0.00;;;33.10;1.00;;;;;;5083266;28;20454;-72
2023/07/11 11:13:46;;;;;;;0.20;0.10;;;32.30;1.00;;;;;;5083551;28;20880;-72
2023/07/11 11:16:59;;;;;;;0.30;0.20;;;33.30;1.00;;;;;;5082671;28;20048;-72
2023/07/11 11:20:03;;;;;;;1.38;0.90;;;33.30;1.00;;;;;;5037627;28;20052;-72
2023/07/11 11:22:46;;;;;;;0.20;0.20;;;33.30;1.00;;;;;;5041545;28;20067;-72
2023/07/11 11:25:48;;;;;;;0.00;0.00;;;33.30;1.00;;;;;;5083410;28;20078;-72
2023/07/11 11:28:24;;;;;;;4.10;0.20;;;33.20;1.00;;;;;;5065315;28;20091;-72
2023/07/11 11:31:23;;;;;;;0.00;0.00;;;33.00;1.00;;;;;;5083574;28;20071;-72
2023/07/11 11:34:07;;;;;;;0.70;0.45;;;32.60;1.00;;;;;;5083678;28;20040;-72
2023/07/11 11:36:42;;;;;;;0.47;0.35;;;32.50;1.00;;;;;;5081920;28;20094;-72
2023/07/11 11:39:46;;;;;;;0.00;0.00;;;32.60;1.00;;;;;;5083132;28;20055;-72
2023/07/11 11:42:20;;;;;;;0.13;0.13;;;32.80;1.00;;;;;;5080597;28;20055;-72
2023/07/11 11:45:04;;;;;;;0.43;0.17;;;33.00;1.00;;;;;;5083324;28;20457;-72
2023/07/11 11:47:33;;;;;;;0.65;0.20;;;33.60;1.00;;;;;;5083493;28;20048;-72
2023/07/11 11:50:00;;;;;;;0.63;0.17;;;34.10;1.00;;;;;;5082857;28;20048;-72
2023/07/11 11:52:31;;;;;;;1.13;0.15;;;34.50;1.00;;;;;;5082610;28;20043;-72
2023/07/11 11:54:56;;;;;;;1.17;0.30;;;34.60;1.00;;;;;;5083068;28;20151;-72
2023/07/11 11:57:33;;;;;;;3.50;0.90;;;34.60;1.00;;;;;;5082935;28;20082;-72
2023/07/11 12:00:00;;;;;;;0.30;0.20;;;34.90;1.00;;;;;;5082925;28;20148;-72
2023/07/11 12:02:39;;;;;;;0.00;0.00;;;35.50;1.00;;;;;;5082466;28;20052;-72
2023/07/11 12:05:22;;;;;;;0.40;0.10;;;35.60;1.00;;;;;;5082816;28;20310;-72
2023/07/11 12:08:34;;;;;;;0.20;0.20;;;35.60;1.00;;;;;;5082549;28;20051;-72
2023/07/11 12:11:08;;;;;;;0.10;0.10;;;36.00;1.00;;;;;;5078793;28;20052;-72
2023/07/11 12:13:43;;;;;;;0.03;0.00;;;35.60;1.00;;;;;;5082712;28;20082;-72
2023/07/11 12:16:21;;;;;;;;;;;35.40;99.90;;;;;;5082669;28;20047;-72
2023/07/11 12:18:51;;;;;;;0.30;0.17;;;35.10;99.90;;;;;;5082121;28;20294;-72
2023/07/11 12:21:32;;;;;;;0.08;0.05;;;34.80;99.90;;;;;;5082796;28;20051;-72
2023/07/11 12:24:20;;;;;;;0.90;0.65;;;34.00;99.90;;;;;;5082223;28;20052;-72
2023/07/11 12:26:45;;;;;;;0.15;0.15;;;34.00;99.90;;;;;;5082164;28;20566;-72
2023/07/11 12:29:36;;;;;;;0.10;0.10;;;34.20;99.90;;;;;;5082114;28;20071;-72
2023/07/11 12:32:32;;;;;;;2.88;0.77;;;34.60;99.90;;;;;;5082372;28;20059;-72
2023/07/11 12:35:12;;;;;;;0.77;0.70;;;35.70;99.90;;;;;;5082388;28;20096;-72
2023/07/11 12:37:49;;;;;;;0.68;0.60;;;35.90;99.90;;;;;;5081957;28;20044;-72
2023/07/11 12:40:38;;;;;;;2.20;0.70;;;35.50;99.90;;;;;;5081778;28;20055;-72
2023/07/11 12:43:22;;;;;;;0.73;0.68;;;35.30;99.90;;;;;;5071126;28;20131;-72
2023/07/11 12:45:53;;;;;;;1.40;0.50;;;34.80;99.90;;;;;;5081825;28;20483;-72
2023/07/11 12:48:27;;;;;;;0.70;0.32;;;34.70;99.90;;;;;;5081669;28;20286;-72
2023/07/11 12:50:57;;;;;;;0.53;0.13;;;34.90;99.90;;;;;;5081892;28;20044;-72
2023/07/11 12:53:23;;;;;;;0.80;0.45;;;35.50;99.90;;;;;;5081900;28;20702;-72
2023/07/11 12:55:52;;;;;;;0.10;0.10;;;35.40;99.90;;;;;;5082139;28;20131;-72
2023/07/11 12:58:23;;;;;;;0.38;0.35;;;35.50;99.90;;;;;;5081778;28;20048;-72
2023/07/11 13:00:52;;;;;;;0.05;0.05;;;35.10;99.90;;;;;;5081930;28;20487;-72
2023/07/11 13:03:27;;;;;;;0.10;0.10;;;34.60;99.90;;;;;;5081681;28;20051;-72
2023/07/11 13:05:55;;;;;;;0.52;0.40;;;34.30;99.90;;;;;;5081730;28;20056;-72
2023/07/11 13:08:21;;;;;;;0.30;0.20;;;33.80;99.90;;;;;;5081446;28;20433;-72